Terminal Aerodrome Forecast
Issued by NWS Topeka, KS

Home | Current Version | Previous Version | Text Only | Print | Product List | Glossary On
Versions: 1 2 3 4 5 6 7 8 9 10 11 12 13 14 15 16 17 18 19 20 21 22 23 24
000
FTUS43 KTOP 302320
TAFTOP
TAF
KTOP 302320Z 3100/3124 11004KT P6SM FEW050
     FM310900 13002KT 3SM BR BKN010
     FM311500 15008KT P6SM SCT025=

USA.gov is the U.S. government's official web portal to all federal, state and local government web resources and services.